createdAt,value
2022-08-18T00:00:57.323Z,6.18
2022-08-18T00:03:11.774Z,6.97
2022-08-18T00:05:30.728Z,5.90
2022-08-18T00:07:33.706Z,5.78
2022-08-18T00:09:36.896Z,5.40
2022-08-18T00:11:43.020Z,5.03
2022-08-18T00:13:44.964Z,6.10
2022-08-18T00:15:49.212Z,6.38
2022-08-18T00:17:51.690Z,6.35
2022-08-18T00:19:53.455Z,5.68
2022-08-18T00:21:55.083Z,5.80
2022-08-18T00:23:56.762Z,5.95
2022-08-18T00:25:59.606Z,6.10
2022-08-18T00:28:01.186Z,5.68
2022-08-18T00:30:05.874Z,6.60
2022-08-18T00:32:19.440Z,6.43
2022-08-18T00:34:21.080Z,5.28
2022-08-18T00:36:22.650Z,5.45
2022-08-18T00:38:25.526Z,6.55
2022-08-18T00:40:38.688Z,7.13
2022-08-18T00:42:47.782Z,5.70
2022-08-18T00:44:49.632Z,5.70
2022-08-18T00:46:51.212Z,6.07
2022-08-18T00:48:53.272Z,5.97
2022-08-18T00:51:02.173Z,5.57
2022-08-18T00:53:29.428Z,6.43
2022-08-18T00:55:33.493Z,6.45
2022-08-18T00:57:36.160Z,6.47
2022-08-18T00:59:42.483Z,5.65
2022-08-18T01:01:45.580Z,5.93
2022-08-18T01:03:53.991Z,6.22
2022-08-18T01:06:16.306Z,6.10
2022-08-18T01:08:18.719Z,6.15
2022-08-18T01:10:33.343Z,6.97
2022-08-18T01:12:45.575Z,6.57
2022-08-18T01:14:48.367Z,6.13
2022-08-18T01:17:09.765Z,8.20
2022-08-18T01:19:29.848Z,6.18
2022-08-18T01:21:53.628Z,6.45
2022-08-18T01:23:56.160Z,7.25
2022-08-18T01:26:00.795Z,6.80
2022-08-18T01:28:03.488Z,7.50
2022-08-18T01:30:10.541Z,6.10
2022-08-18T01:32:19.610Z,6.35
2022-08-18T01:34:24.805Z,6.38
2022-08-18T01:36:28.528Z,7.60
2022-08-18T01:38:32.249Z,6.38
2022-08-18T01:41:21.802Z,7.85
2022-08-18T01:42:56.559Z,6.88
2022-08-18T01:44:58.192Z,8.40
2022-08-18T01:46:59.787Z,6.50
2022-08-18T01:49:03.644Z,6.03
2022-08-18T01:51:09.935Z,6.47
2022-08-18T01:53:11.836Z,6.57
2022-08-18T01:55:14.662Z,7.95
2022-08-18T01:57:17.355Z,6.28
2022-08-18T01:59:19.119Z,7.07
2022-08-18T02:01:23.989Z,9.38
2022-08-18T02:03:42.914Z,7.45
2022-08-18T02:05:49.630Z,6.90
2022-08-18T02:07:54.200Z,6.88
2022-08-18T02:09:56.270Z,7.30
2022-08-18T02:12:01.267Z,6.43
2022-08-18T02:14:03.210Z,6.88
2022-08-18T02:16:05.302Z,6.68
2022-08-18T02:18:07.011Z,6.27
2022-08-18T02:20:11.703Z,7.67
2022-08-18T02:22:18.097Z,7.15
2022-08-18T02:24:19.816Z,6.60
2022-08-18T02:26:23.343Z,5.90
2022-08-18T02:28:28.796Z,6.93
2022-08-18T02:30:34.573Z,5.83
2022-08-18T02:32:36.238Z,6.38
2022-08-18T02:34:37.907Z,6.00
2022-08-18T02:36:39.667Z,7.63
2022-08-18T02:38:42.953Z,7.20
2022-08-18T02:40:46.543Z,7.33
2022-08-18T02:42:48.566Z,5.93
2022-08-18T02:44:50.376Z,8.70
2022-08-18T02:46:54.090Z,9.90
2022-08-18T02:48:56.855Z,6.03
2022-08-18T02:51:01.307Z,6.00
2022-08-18T02:53:03.052Z,7.25
2022-08-18T02:55:06.219Z,8.18
2022-08-18T02:57:10.797Z,6.47
2022-08-18T02:59:18.124Z,7.07
2022-08-18T03:01:21.837Z,6.43
2022-08-18T03:03:23.460Z,6.43
2022-08-18T03:05:25.043Z,6.57
2022-08-18T03:07:26.703Z,6.65
2022-08-18T03:09:29.699Z,6.68
2022-08-18T03:11:31.970Z,6.30
2022-08-18T03:13:33.705Z,7.97
2022-08-18T03:15:35.285Z,7.68
2022-08-18T03:17:37.911Z,7.10
2022-08-18T03:19:39.582Z,8.20
2022-08-18T03:21:41.148Z,6.57
2022-08-18T03:24:01.531Z,6.30
2022-08-18T03:26:04.514Z,6.13
2022-08-18T03:28:07.064Z,6.45
2022-08-18T03:30:11.252Z,7.57
2022-08-18T03:32:13.309Z,6.13
2022-08-18T03:34:15.979Z,6.30
2022-08-18T03:36:20.777Z,6.32
2022-08-18T03:38:23.631Z,5.95
2022-08-18T03:40:25.213Z,6.68
2022-08-18T03:42:26.959Z,6.43
2022-08-18T03:44:34.322Z,7.25
2022-08-18T03:46:35.952Z,6.25
2022-08-18T03:48:40.891Z,6.13
2022-08-18T03:50:43.145Z,6.47
2022-08-18T03:52:48.587Z,6.65
2022-08-18T03:54:50.257Z,6.57
2022-08-18T03:56:51.864Z,8.27
2022-08-18T03:58:57.668Z,7.80
2022-08-18T04:00:59.456Z,6.70
2022-08-18T04:03:03.096Z,6.82
2022-08-18T04:05:06.359Z,6.95
2022-08-18T04:07:10.974Z,6.40
2022-08-18T04:09:14.866Z,8.68
2022-08-18T04:11:16.797Z,7.13
2022-08-18T04:13:18.377Z,6.70
2022-08-18T04:15:20.048Z,7.40
2022-08-18T04:17:25.307Z,6.63
2022-08-18T04:19:28.189Z,8.43
2022-08-18T04:21:33.025Z,6.68
2022-08-18T04:23:43.449Z,8.88
2022-08-18T04:25:45.838Z,7.93
2022-08-18T04:27:47.608Z,7.88
2022-08-18T04:29:49.939Z,7.32
2022-08-18T04:31:52.422Z,8.98
2022-08-18T04:33:55.217Z,8.98
2022-08-18T04:35:56.884Z,7.30
2022-08-18T04:37:58.467Z,10.18
2022-08-18T04:40:00.187Z,7.93
2022-08-18T04:42:04.442Z,10.10
2022-08-18T04:44:08.925Z,7.75
2022-08-18T04:46:11.486Z,7.57
2022-08-18T04:48:13.401Z,7.72
2022-08-18T04:50:15.255Z,7.57
2022-08-18T04:52:39.828Z,8.02
2022-08-18T04:54:43.251Z,8.32
2022-08-18T04:56:45.109Z,9.38
2022-08-18T04:58:51.193Z,8.32
2022-08-18T05:02:24.423Z,7.40
2022-08-18T05:04:28.798Z,8.23
2022-08-18T05:06:31.458Z,9.35
2022-08-18T05:08:33.110Z,9.38
2022-08-18T05:10:35.660Z,8.68
2022-08-18T05:12:37.464Z,8.50
2022-08-18T05:14:44.611Z,8.38
2022-08-18T05:16:48.673Z,8.45
2022-08-18T05:18:52.038Z,8.57
2022-08-18T05:20:55.954Z,8.85
2022-08-18T05:22:58.435Z,8.07
2022-08-18T05:25:00.410Z,9.75
2022-08-18T05:27:03.270Z,8.35
2022-08-18T05:29:18.003Z,9.33
2022-08-18T05:31:24.081Z,14.27
2022-08-18T05:33:25.838Z,8.90
2022-08-18T05:35:36.176Z,11.47
2022-08-18T05:38:12.047Z,8.60
2022-08-18T05:40:15.111Z,8.38
2022-08-18T05:42:20.161Z,8.73
2022-08-18T05:44:36.051Z,8.50
2022-08-18T05:46:46.466Z,8.93
2022-08-18T05:48:48.079Z,9.30
2022-08-18T05:50:51.240Z,8.27
2022-08-18T05:52:58.161Z,8.75
2022-08-18T05:55:49.837Z,9.10
2022-08-18T05:57:58.085Z,9.23
2022-08-18T06:00:00.473Z,10.63
2022-08-18T06:02:16.973Z,7.90
2022-08-18T06:04:27.934Z,8.93
2022-08-18T06:06:31.281Z,10.27
2022-08-18T06:08:40.751Z,9.75
2022-08-18T06:10:47.361Z,10.85
2022-08-18T06:12:53.590Z,8.68
2022-08-18T06:15:20.130Z,8.82
2022-08-18T06:17:40.335Z,11.63
2022-08-18T06:19:57.172Z,9.82
2022-08-18T06:22:01.525Z,9.30
2022-08-18T06:24:05.999Z,9.93
2022-08-18T06:26:26.243Z,10.10
2022-08-18T06:28:55.355Z,9.60
2022-08-18T06:31:05.563Z,9.90
2022-08-18T06:33:21.808Z,10.00
2022-08-18T06:35:34.249Z,9.53
2022-08-18T06:38:13.037Z,10.68
2022-08-18T06:40:14.867Z,10.40
2022-08-18T06:42:25.969Z,9.38
2022-08-18T06:44:36.011Z,9.60
2022-08-18T06:46:44.858Z,12.02
2022-08-18T06:49:03.646Z,9.53
2022-08-18T06:51:07.573Z,10.23
2022-08-18T06:53:26.987Z,9.18
2022-08-18T06:55:40.012Z,11.82
2022-08-18T06:58:00.072Z,9.38
2022-08-18T07:00:05.501Z,9.38
2022-08-18T07:02:41.723Z,9.23
2022-08-18T07:04:59.838Z,10.00
2022-08-18T07:07:14.824Z,10.20
2022-08-18T07:09:25.781Z,10.32
2022-08-18T07:11:31.149Z,11.70
2022-08-18T07:13:40.412Z,10.15
2022-08-18T07:15:45.728Z,10.75
2022-08-18T07:17:49.004Z,10.02
2022-08-18T07:20:01.637Z,11.13
2022-08-18T07:22:39.044Z,9.68
2022-08-18T07:24:46.828Z,9.73
2022-08-18T07:27:00.593Z,10.77
2022-08-18T07:29:14.815Z,9.30
2022-08-18T07:31:28.108Z,9.23
2022-08-18T07:33:30.778Z,10.27
2022-08-18T07:35:45.374Z,9.30
2022-08-18T07:37:54.769Z,9.73
2022-08-18T07:40:02.035Z,9.70
2022-08-18T07:42:33.066Z,9.20
2022-08-18T07:44:45.274Z,11.25
2022-08-18T07:47:00.640Z,8.35
2022-08-18T07:49:05.387Z,11.35
2022-08-18T07:51:21.843Z,10.25
2022-08-18T07:53:38.425Z,11.00
2022-08-18T07:55:44.126Z,8.70
2022-08-18T07:58:20.350Z,9.38
2022-08-18T08:03:23.449Z,11.85
2022-08-18T08:05:35.138Z,10.20
2022-08-18T08:08:12.252Z,11.87
2022-08-18T08:10:29.106Z,10.93
2022-08-18T08:12:42.274Z,10.47
2022-08-18T08:14:47.989Z,10.63
2022-08-18T08:16:51.269Z,10.45
2022-08-18T08:19:49.378Z,11.05
2022-08-18T08:22:12.877Z,10.50
2022-08-18T08:24:34.806Z,12.75
2022-08-18T08:26:51.964Z,11.02
2022-08-18T08:29:11.540Z,10.50
2022-08-18T08:31:37.159Z,10.00
2022-08-18T08:33:52.317Z,10.35
2022-08-18T08:36:18.526Z,11.93
2022-08-18T08:38:42.966Z,12.85
2022-08-18T08:40:49.175Z,11.20
2022-08-18T08:43:15.777Z,15.82
2022-08-18T08:45:42.424Z,12.90
2022-08-18T08:47:49.752Z,13.23
2022-08-18T08:50:00.562Z,13.13
2022-08-18T08:52:19.089Z,14.40
2022-08-18T08:54:26.373Z,13.95
2022-08-18T08:56:33.359Z,13.57
2022-08-18T08:58:57.160Z,15.23
2022-08-18T09:00:59.697Z,13.75
2022-08-18T09:03:13.064Z,13.90
2022-08-18T09:05:20.022Z,13.13
2022-08-18T09:07:47.299Z,12.90
2022-08-18T09:10:04.816Z,13.68
2022-08-18T09:12:49.856Z,13.65
2022-08-18T09:15:19.209Z,13.73
2022-08-18T09:18:00.053Z,13.93
2022-08-18T09:20:23.396Z,13.18
2022-08-18T09:22:49.210Z,13.57
2022-08-18T09:24:53.209Z,13.07
2022-08-18T09:27:03.896Z,14.38
2022-08-18T09:29:23.523Z,15.60
2022-08-18T09:31:27.759Z,16.25
2022-08-18T09:33:45.797Z,15.32
2022-08-18T09:35:59.533Z,16.25
2022-08-18T09:38:29.108Z,17.50
2022-08-18T09:41:02.683Z,16.63
2022-08-18T09:43:37.269Z,17.45
2022-08-18T09:45:49.527Z,16.30
2022-08-18T09:47:57.491Z,16.83
2022-08-18T09:50:06.534Z,16.50
2022-08-18T09:52:24.402Z,17.13
2022-08-18T09:54:31.035Z,17.25
2022-08-18T09:56:53.830Z,16.27
2022-08-18T09:59:02.061Z,16.38
2022-08-18T10:01:32.439Z,15.75
2022-08-18T10:03:35.024Z,15.50
2022-08-18T10:05:36.705Z,15.13
2022-08-18T10:07:44.119Z,16.40
2022-08-18T10:09:45.774Z,14.88
2022-08-18T10:12:02.418Z,15.05
2022-08-18T10:14:24.845Z,15.55
2022-08-18T10:17:21.691Z,16.13
2022-08-18T10:19:39.644Z,15.35
2022-08-18T10:21:58.234Z,14.90
2022-08-18T10:26:54.123Z,14.65
2022-08-18T10:29:00.634Z,15.95
2022-08-18T10:31:10.115Z,16.30
2022-08-18T10:33:18.228Z,16.00
2022-08-18T10:35:35.345Z,16.25
2022-08-18T10:37:44.986Z,15.68
2022-08-18T10:39:50.360Z,15.88
2022-08-18T10:42:22.138Z,17.00
2022-08-18T10:44:30.904Z,15.50
2022-08-18T10:46:46.428Z,15.13
2022-08-18T10:49:07.568Z,15.65
2022-08-18T10:51:27.456Z,15.40
2022-08-18T10:53:47.407Z,16.38
2022-08-18T10:56:11.510Z,15.63
2022-08-18T10:58:24.029Z,15.10
2022-08-18T11:03:51.289Z,14.48
2022-08-18T11:06:02.529Z,14.80
2022-08-18T11:08:16.035Z,16.15
2022-08-18T11:13:12.400Z,15.05
2022-08-18T11:15:31.741Z,15.25
2022-08-18T11:18:14.487Z,15.30
2022-08-18T11:20:19.229Z,18.13
2022-08-18T11:22:31.533Z,17.45
2022-08-18T11:24:35.742Z,16.40
2022-08-18T11:26:53.059Z,16.45
2022-08-18T11:28:55.222Z,17.23
2022-08-18T11:30:57.825Z,16.40
2022-08-18T11:33:02.575Z,16.73
2022-08-18T11:35:10.871Z,16.10
2022-08-18T11:37:27.085Z,16.55
2022-08-18T11:39:38.139Z,17.85
2022-08-18T11:41:48.222Z,16.10
2022-08-18T11:43:57.899Z,15.85
2022-08-18T11:46:11.913Z,17.45
2022-08-18T11:50:54.336Z,17.25
2022-08-18T11:52:57.717Z,17.70
2022-08-18T11:55:14.384Z,18.17
2022-08-18T12:00:43.028Z,16.40
2022-08-18T12:02:45.841Z,15.05
2022-08-18T12:05:03.526Z,15.40
2022-08-18T12:10:17.869Z,16.73
2022-08-18T12:12:32.344Z,15.15
2022-08-18T12:14:52.079Z,17.45
2022-08-18T12:16:54.948Z,15.23
2022-08-18T12:18:57.496Z,16.50
2022-08-18T12:20:59.508Z,15.38
2022-08-18T12:23:05.512Z,14.02
2022-08-18T12:25:12.286Z,16.02
2022-08-18T12:27:22.240Z,14.05
2022-08-18T12:29:29.471Z,14.13
2022-08-18T12:31:42.724Z,14.50
2022-08-18T12:34:01.240Z,13.73
2022-08-18T12:36:04.594Z,13.57
2022-08-18T12:38:12.730Z,12.32
2022-08-18T12:40:15.917Z,11.68
2022-08-18T12:42:18.029Z,11.63
2022-08-18T12:44:21.570Z,14.88
2022-08-18T12:46:23.701Z,11.05
2022-08-18T12:48:30.298Z,11.82
2022-08-18T12:50:36.269Z,11.30
2022-08-18T12:52:41.136Z,11.73
2022-08-18T12:54:55.171Z,11.20
2022-08-18T12:56:58.223Z,10.20
2022-08-18T12:59:04.040Z,10.88
2022-08-18T13:01:07.139Z,10.70
2022-08-18T13:03:09.132Z,10.75
2022-08-18T13:05:11.752Z,12.60
2022-08-18T13:07:15.807Z,11.05
2022-08-18T13:09:34.862Z,10.40
2022-08-18T13:11:43.246Z,10.60
2022-08-18T13:13:45.803Z,11.60
2022-08-18T13:15:58.592Z,11.23
2022-08-18T13:18:03.386Z,13.00
2022-08-18T13:20:10.602Z,11.57
2022-08-18T13:22:15.013Z,11.38
2022-08-18T13:24:22.139Z,13.13
2022-08-18T13:26:31.400Z,10.85
2022-08-18T13:28:36.180Z,11.55
2022-08-18T13:30:56.176Z,11.90
2022-08-18T13:33:05.274Z,11.63
2022-08-18T13:35:13.575Z,12.25
2022-08-18T13:37:15.400Z,12.30
2022-08-18T13:39:19.677Z,12.65
2022-08-18T13:43:32.621Z,11.50
2022-08-18T13:45:36.164Z,11.60
2022-08-18T13:47:39.554Z,12.50
2022-08-18T13:49:43.586Z,12.70
2022-08-18T13:52:00.925Z,12.23
2022-08-18T13:54:30.833Z,12.63
2022-08-18T13:56:31.705Z,12.43
2022-08-18T13:58:33.462Z,11.68
2022-08-18T14:00:35.368Z,12.10
2022-08-18T14:02:37.219Z,11.68
2022-08-18T14:04:38.915Z,12.25
2022-08-18T14:06:51.211Z,11.98
2022-08-18T14:08:59.285Z,12.80
2022-08-18T14:11:03.412Z,12.65
2022-08-18T14:13:09.491Z,13.98
2022-08-18T14:15:26.624Z,13.13
2022-08-18T14:17:28.710Z,12.85
2022-08-18T14:19:48.901Z,13.85
2022-08-18T14:22:11.775Z,14.82
2022-08-18T14:24:31.843Z,14.38
2022-08-18T14:26:51.244Z,14.05
2022-08-18T14:28:52.903Z,14.85
2022-08-18T14:30:55.288Z,15.70
2022-08-18T14:32:59.151Z,15.45
2022-08-18T14:35:21.807Z,14.80
2022-08-18T14:37:24.844Z,13.75
2022-08-18T14:39:27.642Z,12.48
2022-08-18T14:41:30.072Z,12.80
2022-08-18T14:44:10.877Z,14.40
2022-08-18T14:45:58.090Z,12.63
2022-08-18T14:48:00.723Z,12.30
2022-08-18T14:50:03.548Z,12.75
2022-08-18T14:52:06.021Z,12.80
2022-08-18T14:54:17.956Z,11.27
2022-08-18T14:56:19.723Z,11.90
2022-08-18T14:58:29.739Z,9.90
2022-08-18T15:00:31.557Z,11.00
2022-08-18T15:02:33.272Z,10.25
2022-08-18T15:04:38.463Z,9.98
2022-08-18T15:06:56.288Z,9.35
2022-08-18T15:08:58.701Z,8.90
2022-08-18T15:11:00.367Z,9.20
2022-08-18T15:13:03.213Z,8.75
2022-08-18T15:15:12.395Z,8.98
2022-08-18T15:17:19.781Z,8.75
2022-08-18T15:19:59.086Z,8.25
2022-08-18T15:22:03.057Z,11.27
2022-08-18T15:24:23.842Z,8.35
2022-08-18T15:26:26.360Z,9.57
2022-08-18T15:28:28.071Z,8.57
2022-08-18T15:30:29.759Z,6.75
2022-08-18T15:32:31.883Z,7.13
2022-08-18T15:34:46.763Z,7.45
2022-08-18T15:36:49.483Z,7.38
2022-08-18T15:38:51.567Z,6.63
2022-08-18T15:40:59.617Z,7.00
2022-08-18T15:43:09.504Z,6.82
2022-08-18T15:45:13.865Z,7.05
2022-08-18T15:47:20.842Z,8.38
2022-08-18T15:49:24.016Z,6.93
2022-08-18T15:51:25.904Z,7.28
2022-08-18T15:53:39.935Z,7.97
2022-08-18T15:55:46.784Z,5.88
2022-08-18T15:57:58.075Z,6.63
2022-08-18T16:00:03.746Z,6.72
2022-08-18T16:02:05.611Z,6.07
2022-08-18T16:06:20.490Z,6.50
2022-08-18T16:08:25.334Z,6.28
2022-08-18T16:10:32.386Z,7.55
2022-08-18T16:12:34.142Z,5.93
2022-08-18T16:14:41.548Z,6.72
2022-08-18T16:16:43.511Z,6.85
2022-08-18T16:18:46.218Z,7.75
2022-08-18T16:20:48.637Z,8.18
2022-08-18T16:22:54.684Z,7.20
2022-08-18T16:24:56.455Z,8.27
2022-08-18T16:26:58.048Z,8.20
2022-08-18T16:29:01.761Z,7.65
2022-08-18T16:31:04.179Z,10.13
2022-08-18T16:33:07.047Z,8.27
2022-08-18T16:35:09.281Z,8.48
2022-08-18T16:37:11.093Z,8.73
2022-08-18T16:39:12.721Z,9.02
2022-08-18T16:41:15.852Z,8.93
2022-08-18T16:43:17.578Z,9.55
2022-08-18T16:45:19.344Z,8.35
2022-08-18T16:47:20.913Z,7.95
2022-08-18T16:49:22.617Z,8.00
2022-08-18T16:51:27.741Z,8.07
2022-08-18T16:53:40.141Z,7.63
2022-08-18T16:55:43.384Z,7.57
2022-08-18T16:58:03.921Z,7.53
2022-08-18T17:00:25.234Z,7.80
2022-08-18T17:02:45.497Z,7.38
2022-08-18T17:04:47.178Z,7.03
2022-08-18T17:06:49.608Z,8.52
2022-08-18T17:08:51.278Z,7.97
2022-08-18T17:10:52.891Z,8.25
2022-08-18T17:12:54.476Z,7.78
2022-08-18T17:14:56.648Z,8.50
2022-08-18T17:17:00.258Z,7.57
2022-08-18T17:19:02.944Z,7.70
2022-08-18T17:21:07.032Z,7.85
2022-08-18T17:23:08.877Z,8.40
2022-08-18T17:25:13.689Z,7.53
2022-08-18T17:27:26.903Z,7.88
2022-08-18T17:29:35.522Z,8.40
2022-08-18T17:31:43.692Z,7.55
2022-08-18T17:33:45.673Z,8.23
2022-08-18T17:35:47.769Z,9.13
2022-08-18T17:37:59.269Z,8.02
2022-08-18T17:40:10.845Z,9.30
2022-08-18T17:42:29.147Z,10.70
2022-08-18T17:44:31.948Z,8.07
2022-08-18T17:46:40.305Z,8.38
2022-08-18T17:48:47.831Z,8.48
2022-08-18T17:51:17.285Z,7.68
2022-08-18T17:53:21.443Z,8.25
2022-08-18T17:55:35.713Z,9.85
2022-08-18T17:57:58.553Z,8.90
2022-08-18T18:00:16.478Z,8.60
2022-08-18T18:02:29.536Z,8.05
2022-08-18T18:04:32.091Z,8.48
2022-08-18T18:06:40.061Z,9.20
2022-08-18T18:08:48.658Z,9.30
2022-08-18T18:11:04.359Z,8.05
2022-08-18T18:13:33.617Z,9.02
2022-08-18T18:15:39.941Z,8.80
2022-08-18T18:17:42.966Z,10.25
2022-08-18T18:19:47.959Z,8.90
2022-08-18T18:22:04.777Z,8.68
2022-08-18T18:24:06.306Z,8.13
2022-08-18T18:26:26.223Z,9.63
2022-08-18T18:28:31.574Z,7.43
2022-08-18T18:30:33.473Z,8.30
2022-08-18T18:32:59.506Z,7.82
2022-08-18T18:35:09.764Z,9.05
2022-08-18T18:37:35.064Z,9.32
2022-08-18T18:39:36.818Z,8.73
2022-08-18T18:41:40.609Z,9.15
2022-08-18T18:43:46.683Z,9.25
2022-08-18T18:46:18.798Z,9.98
2022-08-18T18:48:48.273Z,8.90
2022-08-18T18:50:56.105Z,8.65
2022-08-18T18:52:58.109Z,11.38
2022-08-18T18:55:06.890Z,9.90
2022-08-18T18:57:19.244Z,8.93
2022-08-18T18:59:48.944Z,9.38
2022-08-18T19:02:01.156Z,10.40
2022-08-18T19:04:32.214Z,9.75
2022-08-18T19:06:51.264Z,9.52
2022-08-18T19:09:13.873Z,9.77
2022-08-18T19:11:32.951Z,9.77
2022-08-18T19:13:54.319Z,9.55
2022-08-18T19:16:00.251Z,9.82
2022-08-18T19:18:23.025Z,10.35
2022-08-18T19:20:39.547Z,9.80
2022-08-18T19:22:50.074Z,9.63
2022-08-18T19:25:08.725Z,9.32
2022-08-18T19:27:34.129Z,9.98
2022-08-18T19:29:41.636Z,10.30
2022-08-18T19:31:49.184Z,9.65
2022-08-18T19:33:55.450Z,9.90
2022-08-18T19:36:20.882Z,10.23
2022-08-18T19:38:30.053Z,10.23
2022-08-18T19:41:00.358Z,10.07
2022-08-18T19:43:11.486Z,10.60
2022-08-18T19:45:43.973Z,10.13
2022-08-18T19:47:55.978Z,10.15
2022-08-18T19:50:34.202Z,9.35
2022-08-18T19:52:54.552Z,9.93
2022-08-18T19:55:33.058Z,10.00
2022-08-18T19:58:02.113Z,9.52
2022-08-18T20:00:22.892Z,10.70
2022-08-18T20:02:25.368Z,10.85
2022-08-18T20:04:58.343Z,11.13
2022-08-18T20:07:38.789Z,11.07
2022-08-18T20:09:53.258Z,11.98
2022-08-18T20:12:26.392Z,11.68
2022-08-18T20:14:28.615Z,11.60
2022-08-18T20:16:44.019Z,12.77
2022-08-18T20:18:49.544Z,12.00
2022-08-18T20:21:13.819Z,11.45
2022-08-18T20:23:35.005Z,11.90
2022-08-18T20:25:43.478Z,12.52
2022-08-18T20:27:51.491Z,11.15
2022-08-18T20:30:22.947Z,11.68
2022-08-18T20:32:35.865Z,12.18
2022-08-18T20:34:37.488Z,14.18
2022-08-18T20:36:41.705Z,11.27
2022-08-18T20:38:50.389Z,11.43
2022-08-18T20:40:52.377Z,10.80
2022-08-18T20:42:56.430Z,11.32
2022-08-18T20:45:20.848Z,11.30
2022-08-18T20:47:25.188Z,11.45
2022-08-18T20:49:35.719Z,10.90
2022-08-18T20:51:52.248Z,11.20
2022-08-18T20:54:13.414Z,12.05
2022-08-18T20:56:43.842Z,11.40
2022-08-18T20:59:09.064Z,11.07
2022-08-18T21:01:13.733Z,11.95
2022-08-18T21:03:16.869Z,12.05
2022-08-18T21:05:33.076Z,11.43
2022-08-18T21:07:39.196Z,11.35
2022-08-18T21:09:50.523Z,11.00
2022-08-18T21:11:54.023Z,10.07
2022-08-18T21:13:58.645Z,11.85
2022-08-18T21:16:05.914Z,11.23
2022-08-18T21:18:19.762Z,10.32
2022-08-18T21:20:24.252Z,11.30
2022-08-18T21:22:27.251Z,10.95
2022-08-18T21:24:40.702Z,10.80
2022-08-18T21:26:46.413Z,13.02
2022-08-18T21:29:11.159Z,11.93
2022-08-18T21:31:43.985Z,10.88
2022-08-18T21:33:53.683Z,11.65
2022-08-18T21:35:55.557Z,10.98
2022-08-18T21:38:04.509Z,11.07
2022-08-18T21:40:06.673Z,10.82
2022-08-18T21:42:18.872Z,10.75
2022-08-18T21:44:44.412Z,10.35
2022-08-18T21:46:47.049Z,10.43
2022-08-18T21:48:53.913Z,11.45
2022-08-18T21:50:58.818Z,11.57
2022-08-18T21:53:16.411Z,11.20
2022-08-18T21:55:41.678Z,11.70
2022-08-18T21:57:50.036Z,12.48
2022-08-18T22:00:19.482Z,11.68
2022-08-18T22:02:21.915Z,11.50
2022-08-18T22:04:46.066Z,12.23
2022-08-18T22:06:50.806Z,12.65
2022-08-18T22:09:26.574Z,12.35
2022-08-18T22:12:00.953Z,11.35
2022-08-18T22:14:54.621Z,12.27
2022-08-18T22:17:28.350Z,11.95
2022-08-18T22:19:29.977Z,12.90
2022-08-18T22:22:22.568Z,13.25
2022-08-18T22:24:35.683Z,12.80
2022-08-18T22:26:38.294Z,12.55
2022-08-18T22:29:08.359Z,13.50
2022-08-18T22:31:10.041Z,13.70
2022-08-18T22:33:11.655Z,13.55
2022-08-18T22:35:13.274Z,13.68
2022-08-18T22:37:23.816Z,14.07
2022-08-18T22:39:31.283Z,12.88
2022-08-18T22:41:34.127Z,13.13
2022-08-18T22:43:36.935Z,14.30
2022-08-18T22:45:38.515Z,16.05
2022-08-18T22:47:45.117Z,14.07
2022-08-18T22:49:47.371Z,14.18
2022-08-18T22:51:51.256Z,13.90
2022-08-18T22:53:53.777Z,14.45
2022-08-18T22:55:57.445Z,13.57
2022-08-18T22:57:59.886Z,14.90
2022-08-18T23:00:02.680Z,14.10
2022-08-18T23:02:05.445Z,15.75
2022-08-18T23:04:07.685Z,14.05
2022-08-18T23:06:09.996Z,14.70
2022-08-18T23:08:11.585Z,14.68
2022-08-18T23:10:14.213Z,14.52
2022-08-18T23:12:16.322Z,15.10
2022-08-18T23:14:18.743Z,14.70
2022-08-18T23:16:31.360Z,14.93
2022-08-18T23:18:33.909Z,13.45
2022-08-18T23:20:37.434Z,13.18
2022-08-18T23:22:43.666Z,13.70
2022-08-18T23:24:45.339Z,13.15
2022-08-18T23:26:47.321Z,13.35
2022-08-18T23:28:52.571Z,15.35
2022-08-18T23:30:56.775Z,15.07
2022-08-18T23:32:58.421Z,13.95
2022-08-18T23:35:00.898Z,15.63
2022-08-18T23:37:04.562Z,14.68
2022-08-18T23:39:06.744Z,16.58
2022-08-18T23:41:11.798Z,15.00
2022-08-18T23:43:14.334Z,16.60
2022-08-18T23:45:15.906Z,15.45
2022-08-18T23:47:20.978Z,16.13
2022-08-18T23:49:23.460Z,16.20
2022-08-18T23:51:30.656Z,16.92
2022-08-18T23:53:32.888Z,16.55
2022-08-18T23:55:34.662Z,15.40
2022-08-18T23:57:36.609Z,16.33
2022-08-18T23:59:38.244Z,16.40
